Terminal Aerodrome Forecast
Issued by NWS

Home | Current Version | Previous Version | Text Only | Print | Product List | Glossary On
Versions: 1 2 3 4 5 6 7 8 9 10 11 12 13 14 15 16 17 18 19 20 21 22 23 24
000
FTUS42 KGSP 172300
TAFAND
TAF
KAND 172333Z 1800/1824 10008KT P6SM FEW024
     FM180400 05004KT 6SM BR BKN045
     FM180700 04003KT 5SM BR BKN015
     FM181000 01003KT 5SM BR BKN009
     FM181300 03004KT P6SM BKN016
     FM181400 04005KT P6SM SCT021=

USA.gov is the U.S. government's official web portal to all federal, state and local government web resources and services.